Time;durP1;ratioP1;P1;durP2;ratioP2;P2;SDS_P1;SDS_P2;PMS_P1;PMS_P2;Temp;Humidity;BMP_temperature;BMP_pressure;BME280_temperature;BME280_humidity;BME280_pressure;Samples;Min_cycle;Max_cycle;Signal;HPM_P1;HPM_P2
2023/09/18 00:01:07;;;;;;;26.60;21.83;;;16.20;99.90;;;;;;5068135;28;20049;-72
2023/09/18 00:03:33;;;;;;;29.88;23.05;;;16.30;99.90;;;;;;5069580;28;20044;-72
2023/09/18 00:05:59;;;;;;;27.30;21.48;;;16.30;99.90;;;;;;5067802;28;20457;-72
2023/09/18 00:08:24;;;;;;;29.75;23.10;;;16.30;99.90;;;;;;5067991;28;20041;-73
2023/09/18 00:10:54;;;;;;;31.13;23.17;;;16.30;99.90;;;;;;5069567;28;20052;-72
2023/09/18 00:13:21;;;;;;;24.38;20.48;;;16.30;99.90;;;;;;5068508;28;20394;-72
2023/09/18 00:15:48;;;;;;;26.65;22.35;;;16.30;99.90;;;;;;5067742;28;20040;-72
2023/09/18 00:18:15;;;;;;;29.08;22.40;;;16.30;99.90;;;;;;5068679;28;20543;-73
2023/09/18 00:20:41;;;;;;;27.52;21.73;;;16.30;99.90;;;;;;5069135;28;20040;-73
2023/09/18 00:23:08;;;;;;;24.92;20.55;;;16.40;99.90;;;;;;5067910;28;20098;-72
2023/09/18 00:25:34;;;;;;;22.65;20.02;;;16.40;99.90;;;;;;5069737;28;20111;-72
2023/09/18 00:28:00;;;;;;;27.35;21.42;;;16.40;99.90;;;;;;5069400;28;20128;-73
2023/09/18 00:30:26;;;;;;;26.25;19.23;;;16.40;99.90;;;;;;5069250;28;20094;-72
2023/09/18 00:32:51;;;;;;;25.75;20.40;;;16.40;99.90;;;;;;5069516;28;20041;-72
2023/09/18 00:35:17;;;;;;;27.80;22.08;;;16.40;99.90;;;;;;5067251;28;20471;-73
2023/09/18 00:37:43;;;;;;;26.92;21.08;;;16.50;99.90;;;;;;5067555;28;20474;-72
2023/09/18 00:40:10;;;;;;;27.45;21.80;;;16.40;99.90;;;;;;5068116;28;20052;-73
2023/09/18 00:42:36;;;;;;;23.77;21.08;;;16.50;99.90;;;;;;5069323;28;20040;-73
2023/09/18 00:45:02;;;;;;;21.88;19.35;;;16.50;99.90;;;;;;5051146;28;20067;-73
2023/09/18 00:47:28;;;;;;;26.55;20.17;;;16.40;99.90;;;;;;5067246;28;20059;-73
2023/09/18 00:49:55;;;;;;;22.40;19.08;;;16.40;99.90;;;;;;5067706;28;20482;-73
2023/09/18 00:52:22;;;;;;;25.38;20.38;;;16.40;99.90;;;;;;5069155;28;20483;-73
2023/09/18 00:54:48;;;;;;;24.92;18.90;;;16.40;99.90;;;;;;5067670;28;20147;-73
2023/09/18 00:57:14;;;;;;;21.92;18.63;;;16.40;99.90;;;;;;5067731;28;20406;-72
2023/09/18 00:59:40;;;;;;;24.42;18.85;;;16.40;99.90;;;;;;5068727;28;20040;-73
2023/09/18 01:02:05;;;;;;;20.30;17.55;;;16.40;99.90;;;;;;5068563;28;20503;-73
2023/09/18 01:04:33;;;;;;;22.75;18.30;;;16.50;99.90;;;;;;5072803;28;20129;-72
2023/09/18 01:07:03;;;;;;;22.50;18.73;;;16.40;99.90;;;;;;5055142;28;20122;-74
2023/09/18 01:09:33;;;;;;;28.50;20.45;;;16.40;99.90;;;;;;5071226;28;20056;-74
2023/09/18 01:12:12;;;;;;;30.65;21.70;;;16.50;99.90;;;;;;5071657;28;20048;-73
2023/09/18 01:14:58;;;;;;;27.63;20.98;;;16.50;99.90;;;;;;5072100;28;20048;-73
2023/09/18 01:17:25;;;;;;;26.80;21.58;;;16.50;99.90;;;;;;5065443;28;20093;-73
2023/09/18 01:19:51;;;;;;;25.55;21.10;;;16.50;99.90;;;;;;5070833;28;20247;-72
2023/09/18 01:22:18;;;;;;;28.75;21.80;;;16.60;99.90;;;;;;5071094;28;20059;-72
2023/09/18 01:24:47;;;;;;;30.92;21.30;;;16.60;99.90;;;;;;5072229;28;20509;-73
2023/09/18 01:27:16;;;;;;;24.33;19.92;;;16.60;99.90;;;;;;5072491;28;20044;-73
2023/09/18 01:29:43;;;;;;;27.17;20.70;;;16.50;99.90;;;;;;5072093;28;20047;-74
2023/09/18 01:32:09;;;;;;;24.30;21.00;;;16.60;99.90;;;;;;5071883;28;20048;-73
2023/09/18 01:34:42;;;;;;;24.70;18.52;;;16.60;99.90;;;;;;5071678;28;20060;-74
2023/09/18 01:37:11;;;;;;;26.45;20.55;;;16.60;99.90;;;;;;5070729;28;20067;-73
2023/09/18 01:39:38;;;;;;;26.02;21.38;;;16.70;99.90;;;;;;5072115;28;20040;-73
2023/09/18 01:42:05;;;;;;;23.70;19.73;;;16.70;99.90;;;;;;5070612;28;20056;-73
2023/09/18 01:44:34;;;;;;;23.83;20.13;;;16.70;99.90;;;;;;5070384;28;20036;-74
2023/09/18 01:47:02;;;;;;;25.05;20.00;;;16.70;99.90;;;;;;5070468;28;20083;-73
2023/09/18 01:49:38;;;;;;;24.13;18.98;;;16.80;99.90;;;;;;5071543;28;20044;-74
2023/09/18 01:52:05;;;;;;;28.92;21.33;;;16.70;99.90;;;;;;5072178;28;20075;-74
2023/09/18 01:54:32;;;;;;;24.80;19.60;;;16.80;99.90;;;;;;5072282;28;20186;-73
2023/09/18 01:56:58;;;;;;;21.48;18.85;;;16.80;99.90;;;;;;5063890;28;20044;-72
2023/09/18 01:59:24;;;;;;;25.38;20.75;;;16.80;99.90;;;;;;5071800;28;20028;-73
2023/09/18 02:01:50;;;;;;;25.48;21.50;;;16.80;99.90;;;;;;5071470;28;20844;-72
2023/09/18 02:04:17;;;;;;;26.08;22.50;;;16.80;99.90;;;;;;5071844;28;20036;-73
2023/09/18 02:06:43;;;;;;;32.78;23.95;;;16.80;99.90;;;;;;5071565;28;20045;-72
2023/09/18 02:09:08;;;;;;;27.15;23.10;;;16.80;99.90;;;;;;5071567;28;20046;-73
2023/09/18 02:11:42;;;;;;;28.38;22.30;;;16.80;99.90;;;;;;5071130;28;20044;-72
2023/09/18 02:14:09;;;;;;;30.80;25.08;;;16.80;99.90;;;;;;5071344;28;20048;-73
2023/09/18 02:16:36;;;;;;;26.00;21.98;;;16.90;99.90;;;;;;5071304;28;20521;-73
2023/09/18 02:19:03;;;;;;;27.42;22.77;;;16.90;99.90;;;;;;5071224;28;20126;-73
2023/09/18 02:21:29;;;;;;;29.30;23.83;;;16.90;99.90;;;;;;5069690;28;20090;-73
2023/09/18 02:23:55;;;;;;;29.45;23.30;;;16.90;99.90;;;;;;5071302;28;20041;-73
2023/09/18 02:26:22;;;;;;;27.35;24.35;;;16.90;99.90;;;;;;5071097;28;20378;-73
2023/09/18 02:28:47;;;;;;;29.33;23.85;;;16.90;99.90;;;;;;5070948;28;20513;-73
2023/09/18 02:31:13;;;;;;;27.50;23.90;;;16.90;99.90;;;;;;5070815;28;20045;-73
2023/09/18 02:33:40;;;;;;;27.30;24.42;;;16.90;99.90;;;;;;5070918;28;20414;-73
2023/09/18 02:36:06;;;;;;;32.65;27.67;;;16.90;99.90;;;;;;5070673;28;20059;-74
2023/09/18 02:38:33;;;;;;;29.63;26.02;;;17.00;99.90;;;;;;5070748;28;20139;-73
2023/09/18 02:40:59;;;;;;;39.50;27.38;;;17.00;99.90;;;;;;5070660;28;20116;-75
2023/09/18 02:43:25;;;;;;;28.40;24.55;;;16.90;99.90;;;;;;5069259;28;20119;-73
2023/09/18 02:45:51;;;;;;;28.65;25.58;;;17.00;99.90;;;;;;5070794;28;20123;-73
2023/09/18 02:48:17;;;;;;;27.50;24.40;;;17.00;99.90;;;;;;5071090;28;20470;-72
2023/09/18 02:50:43;;;;;;;29.92;25.88;;;17.00;99.90;;;;;;5070159;28;20105;-73
2023/09/18 02:53:19;;;;;;;32.38;25.80;;;17.00;99.90;;;;;;5070614;28;20445;-73
2023/09/18 02:55:45;;;;;;;31.98;24.65;;;17.00;99.90;;;;;;5070544;28;20132;-73
2023/09/18 02:58:10;;;;;;;26.58;23.73;;;17.00;99.90;;;;;;5070611;28;20119;-73
2023/09/18 03:00:49;;;;;;;30.33;25.08;;;17.00;99.90;;;;;;5068487;28;20398;-72
2023/09/18 03:03:16;;;;;;;32.22;25.90;;;17.00;99.90;;;;;;5062523;28;20055;-73
2023/09/18 03:05:44;;;;;;;31.23;24.60;;;17.10;99.90;;;;;;5052235;28;20048;-73
2023/09/18 03:08:11;;;;;;;26.80;22.65;;;17.10;99.90;;;;;;5060848;28;20053;-73
2023/09/18 03:10:41;;;;;;;28.70;23.95;;;17.10;99.90;;;;;;5068803;28;20098;-72
2023/09/18 03:13:10;;;;;;;29.70;24.52;;;17.10;99.90;;;;;;5074184;28;20112;-72
2023/09/18 03:15:37;;;;;;;27.60;23.77;;;17.10;99.90;;;;;;5074092;28;20048;-73
2023/09/18 03:18:04;;;;;;;27.05;22.48;;;17.10;99.90;;;;;;5075847;28;20435;-73
2023/09/18 03:20:30;;;;;;;29.55;23.85;;;17.20;99.90;;;;;;5070369;28;20478;-74
2023/09/18 03:22:58;;;;;;;29.45;23.40;;;17.20;99.90;;;;;;5072886;28;20127;-75
2023/09/18 03:25:25;;;;;;;31.90;24.13;;;17.20;99.90;;;;;;5069523;28;20075;-74
2023/09/18 03:27:55;;;;;;;28.27;22.90;;;17.20;99.90;;;;;;5071073;28;20062;-73
2023/09/18 03:30:23;;;;;;;27.70;22.08;;;17.20;99.90;;;;;;5071111;28;20059;-73
2023/09/18 03:32:49;;;;;;;25.88;22.35;;;17.20;99.90;;;;;;5068251;28;20151;-74
2023/09/18 03:35:18;;;;;;;24.70;21.45;;;17.30;99.90;;;;;;5069623;28;20057;-74
2023/09/18 03:37:50;;;;;;;28.00;23.13;;;17.20;99.90;;;;;;5068557;28;20123;-75
2023/09/18 03:40:18;;;;;;;29.95;24.00;;;17.30;99.90;;;;;;5068221;28;20048;-74
2023/09/18 03:42:45;;;;;;;26.95;21.83;;;17.30;99.90;;;;;;5067851;28;20045;-73
2023/09/18 03:45:10;;;;;;;23.45;20.52;;;17.20;99.90;;;;;;5069275;28;20391;-73
2023/09/18 03:47:39;;;;;;;22.40;20.00;;;17.30;99.90;;;;;;5068354;28;20048;-75
2023/09/18 03:50:08;;;;;;;24.23;20.80;;;17.30;99.90;;;;;;5069661;28;20048;-75
2023/09/18 03:52:34;;;;;;;24.58;19.33;;;17.30;99.90;;;;;;5069431;28;20154;-74
2023/09/18 03:55:00;;;;;;;26.85;21.75;;;17.30;99.90;;;;;;5069370;28;20208;-74
2023/09/18 03:57:26;;;;;;;22.02;19.63;;;17.30;99.90;;;;;;5069923;28;20118;-74
2023/09/18 03:59:51;;;;;;;23.80;21.13;;;17.30;99.90;;;;;;5067991;28;20048;-74
2023/09/18 04:02:17;;;;;;;22.88;20.33;;;17.30;99.90;;;;;;5068044;28;20052;-74
2023/09/18 04:04:43;;;;;;;22.60;19.63;;;17.30;99.90;;;;;;5051327;28;20044;-74
2023/09/18 04:07:09;;;;;;;21.42;19.13;;;17.30;99.90;;;;;;5069537;28;20040;-73
2023/09/18 04:09:35;;;;;;;23.17;20.00;;;17.30;99.90;;;;;;5069697;28;20463;-73
2023/09/18 04:12:02;;;;;;;21.55;18.77;;;17.30;99.90;;;;;;5070124;28;20048;-74
2023/09/18 04:14:27;;;;;;;22.20;18.25;;;17.30;99.90;;;;;;5068350;28;20045;-74
2023/09/18 04:16:53;;;;;;;19.40;17.30;;;17.30;99.90;;;;;;5052619;28;20384;-74
2023/09/18 04:19:18;;;;;;;21.50;18.08;;;17.30;99.90;;;;;;5068201;28;20465;-74
2023/09/18 04:21:44;;;;;;;21.02;17.23;;;17.30;99.90;;;;;;5068119;28;20048;-74
2023/09/18 04:24:10;;;;;;;21.83;16.63;;;17.30;99.90;;;;;;5069102;28;20051;-73
2023/09/18 04:26:37;;;;;;;19.92;17.20;;;17.30;99.90;;;;;;5069094;28;20047;-74
2023/09/18 04:29:03;;;;;;;18.40;16.48;;;17.30;99.90;;;;;;5069540;28;20467;-73
2023/09/18 04:31:29;;;;;;;20.25;17.17;;;17.40;99.90;;;;;;5067811;28;20170;-74
2023/09/18 04:33:55;;;;;;;20.77;16.50;;;17.40;99.90;;;;;;5069515;28;20782;-74
2023/09/18 04:36:21;;;;;;;18.65;15.55;;;17.40;99.90;;;;;;5068614;28;20056;-74
2023/09/18 04:38:46;;;;;;;21.50;16.77;;;17.40;99.90;;;;;;5071243;28;20090;-73
2023/09/18 04:41:14;;;;;;;22.50;16.27;;;17.40;99.90;;;;;;5072007;28;20089;-74
2023/09/18 04:43:40;;;;;;;21.65;15.93;;;17.40;99.90;;;;;;5071793;28;20055;-72
2023/09/18 04:46:07;;;;;;;24.10;16.13;;;17.40;99.90;;;;;;5076702;28;20040;-74
2023/09/18 04:48:33;;;;;;;17.55;15.15;;;17.40;99.90;;;;;;5072792;28;20097;-73
2023/09/18 04:50:59;;;;;;;19.20;16.42;;;17.40;99.90;;;;;;5073076;28;20044;-73
2023/09/18 04:53:29;;;;;;;19.52;16.27;;;17.50;99.90;;;;;;5073197;28;20479;-74
2023/09/18 04:55:55;;;;;;;17.40;14.68;;;17.50;99.90;;;;;;5071908;28;20041;-73
2023/09/18 04:58:21;;;;;;;20.02;15.27;;;17.50;99.90;;;;;;5072418;28;20499;-73
2023/09/18 05:00:53;;;;;;;18.35;14.38;;;17.50;99.90;;;;;;5071140;28;20095;-73
2023/09/18 05:03:19;;;;;;;21.27;15.23;;;17.60;99.90;;;;;;5066481;28;20036;-73
2023/09/18 05:05:44;;;;;;;22.55;15.40;;;17.50;99.90;;;;;;5071705;28;20040;-72
2023/09/18 05:08:10;;;;;;;19.05;14.70;;;17.60;99.90;;;;;;5070916;28;20052;-74
2023/09/18 05:10:36;;;;;;;18.20;14.15;;;17.60;99.90;;;;;;5071322;28;20052;-73
2023/09/18 05:13:02;;;;;;;18.83;14.75;;;17.60;99.90;;;;;;5074456;28;20444;-74
2023/09/18 05:15:29;;;;;;;22.35;14.90;;;17.60;99.90;;;;;;5072625;28;20068;-73
2023/09/18 05:17:57;;;;;;;19.52;14.68;;;17.60;99.90;;;;;;5071622;28;20040;-74
2023/09/18 05:20:24;;;;;;;17.50;14.23;;;17.60;99.90;;;;;;5072895;28;20045;-75
2023/09/18 05:22:54;;;;;;;17.35;14.25;;;17.60;99.90;;;;;;5071034;28;20094;-74
2023/09/18 05:25:22;;;;;;;17.23;13.00;;;17.60;99.90;;;;;;5072639;28;20128;-74
2023/09/18 05:27:54;;;;;;;16.77;13.85;;;17.60;99.90;;;;;;5072433;28;20037;-74
2023/09/18 05:30:23;;;;;;;17.75;13.52;;;17.70;99.90;;;;;;5071053;28;20056;-74
2023/09/18 05:32:49;;;;;;;16.00;12.75;;;17.60;99.90;;;;;;5071252;28;20055;-73
2023/09/18 05:35:16;;;;;;;16.77;12.40;;;17.70;99.90;;;;;;5070518;28;20418;-73
2023/09/18 05:37:43;;;;;;;14.57;12.02;;;17.70;99.90;;;;;;5072393;28;20048;-73
2023/09/18 05:40:10;;;;;;;15.77;11.63;;;17.70;99.90;;;;;;5054358;28;20060;-73
2023/09/18 05:42:42;;;;;;;15.13;11.13;;;17.80;99.90;;;;;;5070683;28;20040;-74
2023/09/18 05:45:09;;;;;;;21.17;11.73;;;17.80;99.90;;;;;;5071558;28;20048;-74
2023/09/18 05:47:42;;;;;;;14.63;10.65;;;17.80;99.90;;;;;;5070688;28;20184;-74
2023/09/18 05:50:10;;;;;;;12.60;10.07;;;17.80;99.90;;;;;;5071892;28;20049;-74
2023/09/18 05:52:35;;;;;;;16.73;10.70;;;17.80;99.90;;;;;;5070718;28;20063;-74
2023/09/18 05:55:04;;;;;;;19.20;10.40;;;17.90;99.90;;;;;;5070470;28;20036;-74
2023/09/18 05:57:30;;;;;;;14.88;10.75;;;17.80;99.90;;;;;;5070344;28;20044;-74
2023/09/18 05:59:56;;;;;;;13.63;10.23;;;17.90;99.90;;;;;;5070487;28;20418;-74
2023/09/18 06:02:22;;;;;;;16.90;10.23;;;17.90;99.90;;;;;;5071398;28;20114;-74
2023/09/18 06:04:48;;;;;;;15.98;10.68;;;17.90;99.90;;;;;;5071276;28;20052;-74
2023/09/18 06:07:14;;;;;;;15.63;10.13;;;17.90;99.90;;;;;;5071458;28;20048;-74
2023/09/18 06:09:40;;;;;;;14.50;9.18;;;18.00;99.90;;;;;;5071322;28;20411;-75
2023/09/18 06:12:07;;;;;;;14.88;10.32;;;18.00;99.90;;;;;;5071450;28;20044;-74
2023/09/18 06:14:37;;;;;;;20.40;10.30;;;18.00;99.90;;;;;;5071509;28;20043;-75
2023/09/18 06:17:04;;;;;;;16.50;9.63;;;18.00;99.90;;;;;;5070974;28;20495;-74
2023/09/18 06:19:29;;;;;;;15.52;9.55;;;18.10;99.90;;;;;;5071523;28;20134;-74
2023/09/18 06:21:55;;;;;;;14.90;9.40;;;18.10;99.90;;;;;;5071365;28;20490;-75
2023/09/18 06:24:21;;;;;;;14.95;9.73;;;18.10;99.90;;;;;;5069479;28;20048;-74
2023/09/18 06:26:46;;;;;;;11.80;9.25;;;18.10;99.90;;;;;;5071354;28;20102;-74
2023/09/18 06:29:12;;;;;;;16.17;9.55;;;18.10;99.90;;;;;;5052961;28;20054;-74
2023/09/18 06:31:37;;;;;;;13.63;8.52;;;18.20;99.90;;;;;;5071261;28;20046;-74
2023/09/18 06:34:03;;;;;;;14.50;9.32;;;18.20;99.90;;;;;;5069622;28;20036;-74
2023/09/18 06:36:29;;;;;;;14.50;9.48;;;18.30;99.90;;;;;;5069542;28;20613;-74
2023/09/18 06:38:54;;;;;;;16.55;9.77;;;18.30;99.90;;;;;;5069101;28;20044;-75
2023/09/18 06:41:20;;;;;;;14.65;9.73;;;18.30;99.90;;;;;;5069411;28;20033;-74
2023/09/18 06:43:45;;;;;;;16.08;10.30;;;18.40;99.90;;;;;;5071245;28;20424;-74
2023/09/18 06:46:11;;;;;;;18.15;11.07;;;18.40;99.90;;;;;;5069913;28;20071;-73
2023/09/18 06:48:37;;;;;;;16.58;11.20;;;18.40;99.90;;;;;;5069384;28;20045;-74
2023/09/18 06:51:02;;;;;;;19.77;11.23;;;18.40;99.90;;;;;;5070675;28;20046;-74
2023/09/18 06:53:28;;;;;;;16.10;10.77;;;18.50;99.90;;;;;;5069187;28;20051;-74
2023/09/18 06:55:55;;;;;;;17.63;12.20;;;18.50;99.90;;;;;;5070452;28;20048;-74
2023/09/18 06:58:20;;;;;;;15.68;11.13;;;18.50;99.90;;;;;;5069622;28;20087;-74
2023/09/18 07:00:47;;;;;;;18.67;12.32;;;18.50;99.90;;;;;;5069845;28;20044;-74
2023/09/18 07:03:13;;;;;;;19.10;12.50;;;18.50;99.90;;;;;;5070071;28;20036;-74
2023/09/18 07:05:40;;;;;;;17.38;13.00;;;18.50;99.90;;;;;;5069187;28;20114;-74
2023/09/18 07:08:09;;;;;;;17.52;12.60;;;18.60;99.90;;;;;;5068668;28;20059;-74
2023/09/18 07:10:35;;;;;;;26.05;13.73;;;18.60;99.90;;;;;;5070822;28;20052;-74
2023/09/18 07:13:01;;;;;;;20.83;13.98;;;18.60;99.90;;;;;;5070355;28;20076;-75
2023/09/18 07:15:27;;;;;;;20.45;13.70;;;18.60;99.90;;;;;;5068833;28;20106;-74
2023/09/18 07:17:52;;;;;;;18.83;14.35;;;18.70;99.90;;;;;;5069092;28;20070;-74
2023/09/18 07:20:18;;;;;;;22.15;13.70;;;18.70;99.90;;;;;;5070232;28;20036;-75
2023/09/18 07:22:48;;;;;;;18.83;13.52;;;18.70;99.90;;;;;;5069039;28;20475;-74
2023/09/18 07:25:14;;;;;;;21.20;13.75;;;18.70;99.90;;;;;;5071946;28;20433;-75
2023/09/18 07:27:43;;;;;;;23.30;14.55;;;18.70;99.90;;;;;;5068851;28;20119;-74
2023/09/18 07:30:10;;;;;;;22.20;14.23;;;18.70;99.90;;;;;;5069871;28;20040;-74
2023/09/18 07:32:36;;;;;;;19.67;13.88;;;18.70;99.90;;;;;;5069781;28;20526;-74
2023/09/18 07:35:04;;;;;;;23.20;15.65;;;18.70;99.90;;;;;;5068213;28;20126;-75
2023/09/18 07:37:30;;;;;;;22.85;14.45;;;18.70;99.90;;;;;;5068369;28;20127;-73
2023/09/18 07:39:56;;;;;;;22.55;14.95;;;18.70;99.90;;;;;;5069709;28;20036;-73
2023/09/18 07:42:25;;;;;;;20.80;14.05;;;18.70;99.90;;;;;;5069697;28;20098;-73
2023/09/18 07:44:51;;;;;;;25.10;15.50;;;18.70;99.90;;;;;;5069616;28;20115;-72
2023/09/18 07:47:20;;;;;;;22.40;15.45;;;18.70;99.90;;;;;;5069727;28;20147;-73
2023/09/18 07:49:46;;;;;;;19.02;14.40;;;18.70;99.90;;;;;;5068041;28;20052;-73
2023/09/18 07:52:12;;;;;;;21.67;15.32;;;18.70;99.90;;;;;;5068623;28;20139;-72
2023/09/18 07:54:37;;;;;;;24.30;14.95;;;18.70;99.90;;;;;;5068951;28;20538;-73
2023/09/18 07:57:03;;;;;;;18.88;13.80;;;18.70;99.90;;;;;;5068067;28;20051;-73
2023/09/18 07:59:29;;;;;;;16.70;13.25;;;18.70;99.90;;;;;;5068390;28;20048;-73
2023/09/18 08:01:54;;;;;;;18.13;12.35;;;18.70;99.90;;;;;;5069700;28;20052;-73
2023/09/18 08:04:20;;;;;;;22.35;12.73;;;18.70;99.90;;;;;;5068344;28;20075;-72
2023/09/18 08:06:47;;;;;;;16.05;12.43;;;18.70;99.90;;;;;;5067562;28;20095;-72
2023/09/18 08:09:16;;;;;;;16.20;11.48;;;18.70;99.90;;;;;;5067684;28;20084;-72
2023/09/18 08:11:42;;;;;;;17.58;12.45;;;18.70;99.90;;;;;;5071146;28;20052;-72
2023/09/18 08:14:09;;;;;;;16.67;11.32;;;18.70;99.90;;;;;;5076241;28;20084;-72
2023/09/18 08:16:35;;;;;;;17.80;10.98;;;18.70;99.90;;;;;;5076278;28;20125;-72
2023/09/18 08:19:04;;;;;;;15.82;10.38;;;18.70;99.90;;;;;;5075034;28;20102;-71
2023/09/18 08:21:29;;;;;;;17.02;10.60;;;18.70;99.90;;;;;;5076691;28;20048;-72
2023/09/18 08:23:55;;;;;;;17.77;9.77;;;18.70;99.90;;;;;;5075266;28;20684;-72
2023/09/18 08:26:22;;;;;;;15.88;11.27;;;18.70;99.90;;;;;;5076735;28;20498;-72
2023/09/18 08:28:48;;;;;;;17.15;11.10;;;18.70;99.90;;;;;;5076315;28;20111;-72
2023/09/18 08:31:16;;;;;;;16.88;11.05;;;18.70;99.90;;;;;;5075028;28;20131;-71
2023/09/18 08:33:44;;;;;;;12.88;10.27;;;18.70;99.90;;;;;;5078387;28;20044;-72
2023/09/18 08:36:10;;;;;;;15.07;10.45;;;18.70;99.90;;;;;;5076142;28;20052;-73
2023/09/18 08:38:36;;;;;;;15.60;10.75;;;18.70;99.90;;;;;;5076480;28;20561;-73
2023/09/18 08:41:03;;;;;;;17.98;12.40;;;18.70;99.90;;;;;;5076683;28;20036;-72
2023/09/18 08:43:31;;;;;;;16.05;12.35;;;18.80;99.90;;;;;;5074982;28;20132;-72
2023/09/18 08:46:04;;;;;;;18.45;11.55;;;18.90;99.90;;;;;;5076261;28;20074;-72
2023/09/18 08:48:34;;;;;;;17.05;12.65;;;18.90;99.90;;;;;;5058477;28;20074;-71
2023/09/18 08:51:05;;;;;;;15.90;11.25;;;18.90;99.90;;;;;;5074906;28;20091;-72
2023/09/18 08:53:32;;;;;;;16.13;11.73;;;18.90;99.90;;;;;;5074796;28;20128;-71
2023/09/18 08:56:01;;;;;;;15.25;11.10;;;19.00;99.90;;;;;;5076302;28;20054;-72
2023/09/18 08:58:29;;;;;;;18.58;11.40;;;19.00;99.90;;;;;;5074962;28;20052;-72
2023/09/18 09:00:55;;;;;;;17.40;12.65;;;19.00;99.90;;;;;;5076766;28;20044;-72
2023/09/18 09:03:21;;;;;;;14.48;11.48;;;19.00;99.90;;;;;;5076479;28;20638;-72
2023/09/18 09:05:46;;;;;;;19.30;12.68;;;19.00;99.90;;;;;;5075502;28;20048;-73
2023/09/18 09:08:12;;;;;;;15.45;11.73;;;19.00;99.90;;;;;;5075273;28;20040;-72
2023/09/18 09:10:38;;;;;;;17.33;11.88;;;19.00;99.90;;;;;;5076427;28;20399;-72
2023/09/18 09:13:04;;;;;;;15.82;11.75;;;19.10;99.90;;;;;;5074411;28;20040;-73
2023/09/18 09:15:47;;;;;;;15.18;11.93;;;19.10;99.90;;;;;;5075272;28;20052;-71
2023/09/18 09:18:14;;;;;;;18.23;11.82;;;19.10;99.90;;;;;;5076071;28;20115;-72
2023/09/18 09:20:41;;;;;;;18.38;11.02;;;19.10;99.90;;;;;;5074433;28;20040;-71
2023/09/18 09:23:09;;;;;;;17.50;10.63;;;19.10;99.90;;;;;;5074358;28;20619;-72
2023/09/18 09:25:36;;;;;;;16.50;10.15;;;19.20;99.90;;;;;;5073084;28;20047;-72
2023/09/18 09:28:06;;;;;;;14.38;11.00;;;19.20;99.90;;;;;;5071862;28;20048;-71
2023/09/18 09:30:33;;;;;;;16.35;9.90;;;19.30;99.90;;;;;;5063243;28;20328;-73
2023/09/18 09:32:59;;;;;;;15.40;10.48;;;19.30;99.90;;;;;;5077482;28;20043;-72
2023/09/18 09:35:33;;;;;;;17.75;9.63;;;19.30;99.90;;;;;;5072402;28;20510;-73
2023/09/18 09:38:01;;;;;;;14.90;10.38;;;19.40;99.90;;;;;;5072938;28;20033;-72
2023/09/18 09:40:28;;;;;;;14.73;10.73;;;19.40;99.90;;;;;;5071330;28;20445;-73
2023/09/18 09:43:00;;;;;;;14.88;9.07;;;19.40;99.90;;;;;;5072474;28;20044;-71
2023/09/18 09:45:35;;;;;;;12.75;10.38;;;19.50;99.90;;;;;;5071140;28;20056;-73
2023/09/18 09:48:00;;;;;;;;;;;19.50;99.90;;;;;;5073160;28;20040;-73
2023/09/18 09:50:26;;;;;;;16.13;11.00;;;19.50;99.90;;;;;;5072444;28;19924;-73
2023/09/18 09:52:54;;;;;;;15.48;10.93;;;19.50;99.90;;;;;;5071302;28;20045;-72
2023/09/18 09:55:21;;;;;;;14.27;10.85;;;19.60;99.90;;;;;;5072058;28;20040;-72
2023/09/18 09:57:48;;;;;;;15.95;11.25;;;19.70;99.90;;;;;;5072265;28;20090;-73
2023/09/18 10:00:27;;;;;;;15.30;11.82;;;19.70;99.90;;;;;;5070845;28;20056;-72
2023/09/18 10:02:59;;;;;;;18.17;11.35;;;19.70;99.90;;;;;;5074078;28;20048;-72
2023/09/18 10:05:32;;;;;;;17.83;12.55;;;19.80;99.90;;;;;;5071032;28;20051;-74
2023/09/18 10:07:59;;;;;;;13.43;11.43;;;19.90;99.90;;;;;;5072229;28;20398;-73
2023/09/18 10:10:34;;;;;;;16.58;13.10;;;19.90;99.90;;;;;;5071173;28;20053;-73
2023/09/18 10:13:07;;;;;;;16.10;13.55;;;20.00;99.90;;;;;;5077996;28;20111;-73
2023/09/18 10:15:38;;;;;;;15.63;13.50;;;20.10;99.90;;;;;;5070566;28;20048;-73
2023/09/18 10:18:08;;;;;;;20.13;14.25;;;20.20;99.90;;;;;;5071950;28;20048;-73
2023/09/18 10:20:42;;;;;;;17.20;13.98;;;20.40;99.90;;;;;;5053716;28;20398;-73
2023/09/18 10:23:23;;;;;;;16.60;13.25;;;20.50;99.90;;;;;;5071799;28;20045;-72
2023/09/18 10:25:50;;;;;;;15.52;12.70;;;20.60;99.90;;;;;;5071142;28;20107;-70
2023/09/18 10:28:17;;;;;;;18.90;13.10;;;20.80;99.90;;;;;;5071619;28;20107;-72
2023/09/18 10:30:44;;;;;;;16.85;12.63;;;20.80;99.90;;;;;;5071402;28;20265;-72
2023/09/18 10:33:10;;;;;;;15.57;12.02;;;20.80;99.90;;;;;;5072007;28;20048;-72
2023/09/18 10:35:36;;;;;;;12.50;11.20;;;20.90;99.90;;;;;;5070254;28;20059;-71
2023/09/18 10:38:05;;;;;;;14.95;10.40;;;20.90;99.90;;;;;;5069742;28;20059;-72
2023/09/18 10:40:32;;;;;;;11.10;9.68;;;20.90;99.90;;;;;;5071070;28;20032;-72
2023/09/18 10:43:02;;;;;;;10.57;9.10;;;21.00;99.90;;;;;;5054035;28;20494;-70
2023/09/18 10:45:28;;;;;;;11.20;9.45;;;21.10;99.90;;;;;;5070151;28;20059;-75
2023/09/18 10:47:55;;;;;;;12.88;8.98;;;21.00;99.90;;;;;;5071241;28;20044;-71
2023/09/18 10:50:25;;;;;;;11.55;9.63;;;21.10;99.90;;;;;;5069801;28;20439;-73
2023/09/18 10:52:51;;;;;;;10.65;8.68;;;21.10;99.90;;;;;;5071183;28;20051;-73
2023/09/18 10:55:17;;;;;;;9.93;8.20;;;21.30;99.90;;;;;;5071095;28;20129;-71
2023/09/18 10:57:56;;;;;;;10.70;6.93;;;21.40;99.90;;;;;;5070468;28;20091;-73
2023/09/18 11:00:25;;;;;;;8.82;6.70;;;21.70;99.90;;;;;;5069285;28;20032;-72
2023/09/18 11:02:52;;;;;;;8.07;5.65;;;21.80;99.90;;;;;;5069027;28;20076;-74
2023/09/18 11:05:32;;;;;;;8.13;5.93;;;21.80;99.90;;;;;;5069034;28;20177;-72
2023/09/18 11:08:36;;;;;;;11.15;5.50;;;21.70;99.90;;;;;;5070482;28;20048;-72
2023/09/18 11:11:19;;;;;;;11.32;5.63;;;21.60;99.90;;;;;;5069858;28;20339;-72
2023/09/18 11:13:45;;;;;;;8.90;5.53;;;21.50;99.90;;;;;;5070324;28;20036;-73
2023/09/18 11:16:33;;;;;;;7.65;5.57;;;21.40;99.90;;;;;;5069805;28;20052;-73
2023/09/18 11:18:58;;;;;;;8.32;5.18;;;21.50;99.90;;;;;;5068436;28;20040;-74
2023/09/18 11:21:29;;;;;;;7.03;5.35;;;21.60;99.90;;;;;;5068487;28;20418;-73
2023/09/18 11:23:58;;;;;;;7.68;4.90;;;21.70;99.90;;;;;;5070296;28;20123;-73
2023/09/18 11:26:29;;;;;;;6.80;5.10;;;21.80;99.90;;;;;;5068978;28;20044;-72
2023/09/18 11:28:55;;;;;;;8.18;4.82;;;22.00;99.90;;;;;;5051945;28;20063;-71
2023/09/18 11:31:40;;;;;;;9.00;4.53;;;22.20;99.90;;;;;;5068107;28;20036;-73
2023/09/18 11:34:13;;;;;;;9.85;4.22;;;22.20;99.90;;;;;;5068498;28;20119;-74
2023/09/18 11:36:40;;;;;;;11.77;4.07;;;22.50;99.90;;;;;;5061931;28;20056;-74
2023/09/18 11:39:06;;;;;;;11.32;4.47;;;22.70;99.90;;;;;;5051828;28;20047;-76
2023/09/18 11:41:35;;;;;;;5.57;3.83;;;23.00;99.90;;;;;;5068466;28;20056;-72
2023/09/18 11:44:19;;;;;;;9.38;4.43;;;23.00;99.90;;;;;;5068561;28;20055;-75
2023/09/18 11:46:51;;;;;;;6.88;3.60;;;23.20;99.90;;;;;;5068932;28;20049;-76
2023/09/18 11:49:27;;;;;;;9.30;4.10;;;23.30;99.90;;;;;;5074305;28;20040;-74
2023/09/18 11:51:53;;;;;;;7.93;4.05;;;23.10;99.90;;;;;;5061655;28;20058;-73
2023/09/18 11:54:20;;;;;;;5.68;3.85;;;22.90;99.90;;;;;;5068537;28;20506;-74
2023/09/18 11:56:46;;;;;;;12.95;4.40;;;22.90;99.90;;;;;;5069409;28;20059;-73
2023/09/18 11:59:12;;;;;;;10.77;4.43;;;23.00;99.90;;;;;;5068376;28;20048;-72
2023/09/18 12:01:43;;;;;;;10.93;3.55;;;23.30;99.90;;;;;;5069416;28;20482;-71
2023/09/18 12:04:09;;;;;;;9.20;3.67;;;23.40;99.90;;;;;;5068332;28;20093;-73
2023/09/18 12:06:36;;;;;;;10.45;4.22;;;23.30;99.90;;;;;;5068546;28;20065;-71
2023/09/18 12:09:03;;;;;;;6.15;3.50;;;23.30;99.90;;;;;;5068149;28;20044;-75
2023/09/18 12:11:35;;;;;;;5.47;3.75;;;23.20;99.90;;;;;;5069456;28;20555;-73
2023/09/18 12:14:05;;;;;;;8.45;3.83;;;23.30;99.90;;;;;;5068248;28;20044;-72
2023/09/18 12:16:31;;;;;;;11.15;4.38;;;23.20;99.90;;;;;;5068395;28;20056;-74
2023/09/18 12:18:57;;;;;;;5.93;3.95;;;23.10;99.90;;;;;;5068239;28;20047;-75
2023/09/18 12:21:23;;;;;;;8.23;3.97;;;23.30;99.90;;;;;;5067920;28;20108;-72
2023/09/18 12:23:50;;;;;;;6.07;3.65;;;23.40;99.90;;;;;;5068488;28;20487;-74
2023/09/18 12:26:19;;;;;;;9.27;3.50;;;23.50;99.90;;;;;;5068011;28;20057;-73
2023/09/18 12:28:45;;;;;;;7.85;3.80;;;23.60;99.90;;;;;;5068440;28;20044;-73
2023/09/18 12:31:15;;;;;;;6.25;3.15;;;23.40;99.90;;;;;;5069041;28;20053;-71
2023/09/18 12:33:43;;;;;;;6.82;3.55;;;23.20;99.90;;;;;;5069170;28;20043;-73